sensor_id;sensor_type;location;lat;lon;timestamp;P1;durP1;ratioP1;P2;durP2;ratioP2
67156;SDS011;54086;50.126;8.710;2023-02-01T00:01:38;8.20;;;3.53;;
67156;SDS011;54086;50.126;8.710;2023-02-01T00:04:03;8.27;;;3.73;;
67156;SDS011;54086;50.126;8.710;2023-02-01T00:06:29;8.55;;;3.90;;
67156;SDS011;54086;50.126;8.710;2023-02-01T00:08:54;8.10;;;3.60;;
67156;SDS011;54086;50.126;8.710;2023-02-01T00:11:20;10.25;;;4.15;;
67156;SDS011;54086;50.126;8.710;2023-02-01T00:13:47;8.97;;;4.00;;
67156;SDS011;54086;50.126;8.710;2023-02-01T00:16:13;8.32;;;3.80;;
67156;SDS011;54086;50.126;8.710;2023-02-01T00:18:44;9.10;;;3.55;;
67156;SDS011;54086;50.126;8.710;2023-02-01T00:21:11;10.13;;;3.97;;
67156;SDS011;54086;50.126;8.710;2023-02-01T00:23:37;10.13;;;4.10;;
67156;SDS011;54086;50.126;8.710;2023-02-01T00:26:05;8.55;;;3.83;;
67156;SDS011;54086;50.126;8.710;2023-02-01T00:28:35;7.55;;;3.78;;
67156;SDS011;54086;50.126;8.710;2023-02-01T00:31:02;10.63;;;3.93;;
67156;SDS011;54086;50.126;8.710;2023-02-01T00:33:29;9.18;;;3.85;;
67156;SDS011;54086;50.126;8.710;2023-02-01T00:36:02;10.00;;;4.05;;
67156;SDS011;54086;50.126;8.710;2023-02-01T00:38:30;7.53;;;3.20;;
67156;SDS011;54086;50.126;8.710;2023-02-01T00:41:03;9.77;;;3.60;;
67156;SDS011;54086;50.126;8.710;2023-02-01T00:43:40;9.38;;;3.80;;
67156;SDS011;54086;50.126;8.710;2023-02-01T00:46:05;8.48;;;4.15;;
67156;SDS011;54086;50.126;8.710;2023-02-01T00:48:31;8.53;;;4.07;;
67156;SDS011;54086;50.126;8.710;2023-02-01T00:51:00;8.27;;;3.97;;
67156;SDS011;54086;50.126;8.710;2023-02-01T00:53:26;8.15;;;3.92;;
67156;SDS011;54086;50.126;8.710;2023-02-01T00:55:51;9.00;;;3.75;;
67156;SDS011;54086;50.126;8.710;2023-02-01T00:58:17;9.63;;;3.43;;
67156;SDS011;54086;50.126;8.710;2023-02-01T01:00:42;9.33;;;4.13;;
67156;SDS011;54086;50.126;8.710;2023-02-01T01:03:07;10.07;;;4.33;;
67156;SDS011;54086;50.126;8.710;2023-02-01T01:05:45;9.10;;;4.00;;
67156;SDS011;54086;50.126;8.710;2023-02-01T01:08:12;9.70;;;4.57;;
67156;SDS011;54086;50.126;8.710;2023-02-01T01:10:38;8.47;;;3.90;;
67156;SDS011;54086;50.126;8.710;2023-02-01T01:13:04;8.77;;;4.57;;
67156;SDS011;54086;50.126;8.710;2023-02-01T01:15:29;8.75;;;4.07;;
67156;SDS011;54086;50.126;8.710;2023-02-01T01:17:55;9.50;;;4.20;;
67156;SDS011;54086;50.126;8.710;2023-02-01T01:20:20;9.73;;;4.17;;
67156;SDS011;54086;50.126;8.710;2023-02-01T01:22:46;8.27;;;4.13;;
67156;SDS011;54086;50.126;8.710;2023-02-01T01:25:14;10.98;;;4.60;;
67156;SDS011;54086;50.126;8.710;2023-02-01T01:27:40;8.77;;;4.33;;
67156;SDS011;54086;50.126;8.710;2023-02-01T01:30:05;8.40;;;4.33;;
67156;SDS011;54086;50.126;8.710;2023-02-01T01:32:32;10.52;;;4.93;;
67156;SDS011;54086;50.126;8.710;2023-02-01T01:34:57;9.93;;;4.87;;
67156;SDS011;54086;50.126;8.710;2023-02-01T01:37:23;8.90;;;4.63;;
67156;SDS011;54086;50.126;8.710;2023-02-01T01:39:48;11.73;;;4.50;;
67156;SDS011;54086;50.126;8.710;2023-02-01T01:42:13;10.20;;;4.43;;
67156;SDS011;54086;50.126;8.710;2023-02-01T01:47:30;8.80;;;4.15;;
67156;SDS011;54086;50.126;8.710;2023-02-01T01:50:01;9.27;;;4.30;;
67156;SDS011;54086;50.126;8.710;2023-02-01T01:52:29;8.60;;;4.03;;
67156;SDS011;54086;50.126;8.710;2023-02-01T01:54:54;8.93;;;4.50;;
67156;SDS011;54086;50.126;8.710;2023-02-01T01:57:23;11.07;;;5.60;;
67156;SDS011;54086;50.126;8.710;2023-02-01T01:59:58;10.88;;;4.50;;
67156;SDS011;54086;50.126;8.710;2023-02-01T02:02:30;10.20;;;4.57;;
67156;SDS011;54086;50.126;8.710;2023-02-01T02:04:55;9.83;;;4.87;;
67156;SDS011;54086;50.126;8.710;2023-02-01T02:07:23;12.57;;;4.60;;
67156;SDS011;54086;50.126;8.710;2023-02-01T02:09:52;9.38;;;4.82;;
67156;SDS011;54086;50.126;8.710;2023-02-01T02:12:17;9.53;;;4.97;;
67156;SDS011;54086;50.126;8.710;2023-02-01T02:14:43;10.40;;;4.43;;
67156;SDS011;54086;50.126;8.710;2023-02-01T02:23:31;10.32;;;4.82;;
67156;SDS011;54086;50.126;8.710;2023-02-01T02:26:01;9.03;;;4.50;;
67156;SDS011;54086;50.126;8.710;2023-02-01T02:34:37;11.25;;;5.38;;
67156;SDS011;54086;50.126;8.710;2023-02-01T02:37:17;9.70;;;5.18;;
67156;SDS011;54086;50.126;8.710;2023-02-01T02:45:44;12.82;;;6.18;;
67156;SDS011;54086;50.126;8.710;2023-02-01T02:48:47;13.38;;;6.35;;
67156;SDS011;54086;50.126;8.710;2023-02-01T02:51:26;11.50;;;6.07;;
67156;SDS011;54086;50.126;8.710;2023-02-01T02:54:24;12.67;;;6.13;;
67156;SDS011;54086;50.126;8.710;2023-02-01T02:57:12;12.82;;;5.82;;
67156;SDS011;54086;50.126;8.710;2023-02-01T03:00:01;13.95;;;5.97;;
67156;SDS011;54086;50.126;8.710;2023-02-01T03:02:48;12.98;;;5.57;;
67156;SDS011;54086;50.126;8.710;2023-02-01T03:05:34;9.93;;;5.50;;
67156;SDS011;54086;50.126;8.710;2023-02-01T03:08:04;11.83;;;5.67;;
67156;SDS011;54086;50.126;8.710;2023-02-01T03:11:14;11.25;;;5.68;;
67156;SDS011;54086;50.126;8.710;2023-02-01T03:23:55;11.43;;;5.38;;
67156;SDS011;54086;50.126;8.710;2023-02-01T03:26:24;10.75;;;5.82;;
67156;SDS011;54086;50.126;8.710;2023-02-01T03:28:55;12.55;;;5.63;;
67156;SDS011;54086;50.126;8.710;2023-02-01T03:31:24;11.15;;;4.88;;
67156;SDS011;54086;50.126;8.710;2023-02-01T03:33:49;9.57;;;4.67;;
67156;SDS011;54086;50.126;8.710;2023-02-01T03:44:07;11.40;;;4.85;;
67156;SDS011;54086;50.126;8.710;2023-02-01T03:46:41;10.70;;;4.57;;
67156;SDS011;54086;50.126;8.710;2023-02-01T03:49:12;12.38;;;4.05;;
67156;SDS011;54086;50.126;8.710;2023-02-01T03:51:43;9.73;;;4.23;;
67156;SDS011;54086;50.126;8.710;2023-02-01T03:54:10;10.07;;;4.13;;
67156;SDS011;54086;50.126;8.710;2023-02-01T03:56:38;10.82;;;4.22;;
67156;SDS011;54086;50.126;8.710;2023-02-01T03:59:09;10.97;;;4.37;;
67156;SDS011;54086;50.126;8.710;2023-02-01T04:01:35;10.88;;;4.30;;
67156;SDS011;54086;50.126;8.710;2023-02-01T04:04:00;9.13;;;3.73;;
67156;SDS011;54086;50.126;8.710;2023-02-01T04:06:25;12.10;;;4.03;;
67156;SDS011;54086;50.126;8.710;2023-02-01T04:08:51;8.23;;;3.70;;
67156;SDS011;54086;50.126;8.710;2023-02-01T04:11:17;10.87;;;4.53;;
67156;SDS011;54086;50.126;8.710;2023-02-01T04:13:43;11.18;;;4.55;;
67156;SDS011;54086;50.126;8.710;2023-02-01T04:16:08;8.55;;;4.00;;
67156;SDS011;54086;50.126;8.710;2023-02-01T04:18:34;9.77;;;4.40;;
67156;SDS011;54086;50.126;8.710;2023-02-01T04:21:00;9.93;;;4.33;;
67156;SDS011;54086;50.126;8.710;2023-02-01T04:23:26;10.30;;;4.25;;
67156;SDS011;54086;50.126;8.710;2023-02-01T04:25:52;10.52;;;4.65;;
67156;SDS011;54086;50.126;8.710;2023-02-01T04:28:18;11.33;;;4.40;;
67156;SDS011;54086;50.126;8.710;2023-02-01T04:30:43;8.40;;;4.00;;
67156;SDS011;54086;50.126;8.710;2023-02-01T04:33:10;11.13;;;4.57;;
67156;SDS011;54086;50.126;8.710;2023-02-01T04:35:38;9.18;;;4.32;;
67156;SDS011;54086;50.126;8.710;2023-02-01T04:38:04;10.13;;;4.37;;
67156;SDS011;54086;50.126;8.710;2023-02-01T04:40:29;10.90;;;4.57;;
67156;SDS011;54086;50.126;8.710;2023-02-01T04:42:55;11.57;;;4.43;;
67156;SDS011;54086;50.126;8.710;2023-02-01T04:45:20;8.57;;;4.17;;
67156;SDS011;54086;50.126;8.710;2023-02-01T04:47:45;12.73;;;4.77;;
67156;SDS011;54086;50.126;8.710;2023-02-01T04:50:13;11.35;;;4.30;;
67156;SDS011;54086;50.126;8.710;2023-02-01T04:52:38;10.40;;;4.10;;
67156;SDS011;54086;50.126;8.710;2023-02-01T04:55:03;10.63;;;4.03;;
67156;SDS011;54086;50.126;8.710;2023-02-01T04:57:29;9.77;;;4.27;;
67156;SDS011;54086;50.126;8.710;2023-02-01T04:59:54;10.68;;;4.38;;
67156;SDS011;54086;50.126;8.710;2023-02-01T05:02:20;10.37;;;4.90;;
67156;SDS011;54086;50.126;8.710;2023-02-01T05:04:45;10.33;;;4.17;;
67156;SDS011;54086;50.126;8.710;2023-02-01T05:07:10;11.00;;;4.30;;
67156;SDS011;54086;50.126;8.710;2023-02-01T05:09:36;11.05;;;4.13;;
67156;SDS011;54086;50.126;8.710;2023-02-01T05:12:02;9.90;;;4.47;;
67156;SDS011;54086;50.126;8.710;2023-02-01T05:14:46;11.32;;;4.82;;
67156;SDS011;54086;50.126;8.710;2023-02-01T05:17:12;12.35;;;4.70;;
67156;SDS011;54086;50.126;8.710;2023-02-01T05:19:38;11.10;;;4.07;;
67156;SDS011;54086;50.126;8.710;2023-02-01T05:22:03;14.93;;;4.87;;
67156;SDS011;54086;50.126;8.710;2023-02-01T05:24:28;11.30;;;4.10;;
67156;SDS011;54086;50.126;8.710;2023-02-01T05:26:54;10.23;;;4.40;;
67156;SDS011;54086;50.126;8.710;2023-02-01T05:29:19;12.50;;;4.67;;
67156;SDS011;54086;50.126;8.710;2023-02-01T05:31:45;9.73;;;4.68;;
67156;SDS011;54086;50.126;8.710;2023-02-01T05:34:11;11.33;;;4.60;;
67156;SDS011;54086;50.126;8.710;2023-02-01T05:36:37;12.13;;;4.35;;
67156;SDS011;54086;50.126;8.710;2023-02-01T05:39:02;11.93;;;4.50;;
67156;SDS011;54086;50.126;8.710;2023-02-01T05:41:28;11.60;;;3.90;;
67156;SDS011;54086;50.126;8.710;2023-02-01T05:43:53;11.00;;;4.17;;
67156;SDS011;54086;50.126;8.710;2023-02-01T05:46:19;10.33;;;4.13;;
67156;SDS011;54086;50.126;8.710;2023-02-01T05:48:44;11.85;;;3.97;;
67156;SDS011;54086;50.126;8.710;2023-02-01T05:51:10;11.37;;;3.80;;
67156;SDS011;54086;50.126;8.710;2023-02-01T05:53:36;10.60;;;4.15;;
67156;SDS011;54086;50.126;8.710;2023-02-01T05:56:02;14.60;;;3.70;;
67156;SDS011;54086;50.126;8.710;2023-02-01T05:58:27;10.80;;;3.53;;
67156;SDS011;54086;50.126;8.710;2023-02-01T06:00:53;9.40;;;3.43;;
67156;SDS011;54086;50.126;8.710;2023-02-01T06:03:19;12.67;;;4.43;;
67156;SDS011;54086;50.126;8.710;2023-02-01T06:05:44;11.38;;;3.65;;
67156;SDS011;54086;50.126;8.710;2023-02-01T06:08:10;11.23;;;3.30;;
67156;SDS011;54086;50.126;8.710;2023-02-01T06:10:35;9.88;;;3.22;;
67156;SDS011;54086;50.126;8.710;2023-02-01T06:13:01;13.00;;;3.40;;
67156;SDS011;54086;50.126;8.710;2023-02-01T06:15:27;12.10;;;3.80;;
67156;SDS011;54086;50.126;8.710;2023-02-01T06:17:53;10.47;;;3.40;;
67156;SDS011;54086;50.126;8.710;2023-02-01T06:20:19;11.68;;;4.13;;
67156;SDS011;54086;50.126;8.710;2023-02-01T06:22:45;9.00;;;3.70;;
67156;SDS011;54086;50.126;8.710;2023-02-01T06:25:10;11.75;;;3.78;;
67156;SDS011;54086;50.126;8.710;2023-02-01T06:27:36;11.63;;;2.90;;
67156;SDS011;54086;50.126;8.710;2023-02-01T06:30:02;12.57;;;3.33;;
67156;SDS011;54086;50.126;8.710;2023-02-01T06:32:29;11.23;;;3.33;;
67156;SDS011;54086;50.126;8.710;2023-02-01T06:34:55;12.77;;;3.53;;
67156;SDS011;54086;50.126;8.710;2023-02-01T06:37:21;10.50;;;3.92;;
67156;SDS011;54086;50.126;8.710;2023-02-01T06:39:48;12.20;;;3.97;;
67156;SDS011;54086;50.126;8.710;2023-02-01T06:42:13;10.33;;;3.57;;
67156;SDS011;54086;50.126;8.710;2023-02-01T06:44:39;9.30;;;3.33;;
67156;SDS011;54086;50.126;8.710;2023-02-01T06:47:04;11.67;;;4.13;;
67156;SDS011;54086;50.126;8.710;2023-02-01T06:49:30;10.83;;;3.40;;
67156;SDS011;54086;50.126;8.710;2023-02-01T06:51:55;11.30;;;3.30;;
67156;SDS011;54086;50.126;8.710;2023-02-01T06:54:21;10.90;;;3.37;;
67156;SDS011;54086;50.126;8.710;2023-02-01T06:56:46;12.93;;;3.90;;
67156;SDS011;54086;50.126;8.710;2023-02-01T06:59:12;14.20;;;3.92;;
67156;SDS011;54086;50.126;8.710;2023-02-01T07:01:37;9.80;;;3.87;;
67156;SDS011;54086;50.126;8.710;2023-02-01T07:04:03;12.73;;;3.77;;
67156;SDS011;54086;50.126;8.710;2023-02-01T07:06:28;12.33;;;3.40;;
67156;SDS011;54086;50.126;8.710;2023-02-01T07:08:54;12.07;;;4.27;;
67156;SDS011;54086;50.126;8.710;2023-02-01T07:11:21;13.05;;;3.80;;
67156;SDS011;54086;50.126;8.710;2023-02-01T07:13:47;10.32;;;3.22;;
67156;SDS011;54086;50.126;8.710;2023-02-01T07:16:13;13.73;;;3.87;;
67156;SDS011;54086;50.126;8.710;2023-02-01T07:18:40;8.88;;;2.78;;
67156;SDS011;54086;50.126;8.710;2023-02-01T07:21:06;10.00;;;3.10;;
67156;SDS011;54086;50.126;8.710;2023-02-01T07:23:32;9.90;;;3.00;;
67156;SDS011;54086;50.126;8.710;2023-02-01T07:25:58;13.13;;;3.83;;
67156;SDS011;54086;50.126;8.710;2023-02-01T07:28:26;13.63;;;4.15;;
67156;SDS011;54086;50.126;8.710;2023-02-01T07:30:54;14.77;;;3.67;;
67156;SDS011;54086;50.126;8.710;2023-02-01T07:33:20;14.40;;;3.40;;
67156;SDS011;54086;50.126;8.710;2023-02-01T07:35:47;14.38;;;3.40;;
67156;SDS011;54086;50.126;8.710;2023-02-01T07:38:14;14.33;;;3.67;;
67156;SDS011;54086;50.126;8.710;2023-02-01T07:40:39;11.13;;;3.28;;
67156;SDS011;54086;50.126;8.710;2023-02-01T07:43:05;15.70;;;3.27;;
67156;SDS011;54086;50.126;8.710;2023-02-01T07:45:36;14.00;;;3.20;;
67156;SDS011;54086;50.126;8.710;2023-02-01T07:48:02;14.48;;;3.53;;
67156;SDS011;54086;50.126;8.710;2023-02-01T07:50:28;12.13;;;2.80;;
67156;SDS011;54086;50.126;8.710;2023-02-01T07:52:54;12.95;;;3.75;;
67156;SDS011;54086;50.126;8.710;2023-02-01T07:55:20;10.27;;;2.87;;
67156;SDS011;54086;50.126;8.710;2023-02-01T07:57:45;13.20;;;3.07;;
67156;SDS011;54086;50.126;8.710;2023-02-01T08:00:11;16.42;;;3.38;;
67156;SDS011;54086;50.126;8.710;2023-02-01T08:02:59;15.90;;;3.00;;
67156;SDS011;54086;50.126;8.710;2023-02-01T08:05:24;15.93;;;3.30;;
67156;SDS011;54086;50.126;8.710;2023-02-01T08:07:50;12.27;;;2.75;;
67156;SDS011;54086;50.126;8.710;2023-02-01T08:10:16;12.43;;;3.67;;
67156;SDS011;54086;50.126;8.710;2023-02-01T08:12:42;14.70;;;3.17;;
67156;SDS011;54086;50.126;8.710;2023-02-01T08:15:12;13.38;;;2.90;;
67156;SDS011;54086;50.126;8.710;2023-02-01T08:17:38;9.95;;;2.85;;
67156;SDS011;54086;50.126;8.710;2023-02-01T08:20:04;10.57;;;3.23;;
67156;SDS011;54086;50.126;8.710;2023-02-01T08:22:32;10.60;;;3.07;;
67156;SDS011;54086;50.126;8.710;2023-02-01T08:24:58;12.43;;;2.95;;
67156;SDS011;54086;50.126;8.710;2023-02-01T08:27:26;16.48;;;3.60;;
67156;SDS011;54086;50.126;8.710;2023-02-01T08:29:52;12.30;;;3.00;;
67156;SDS011;54086;50.126;8.710;2023-02-01T08:32:18;14.18;;;3.92;;
67156;SDS011;54086;50.126;8.710;2023-02-01T08:34:43;11.20;;;3.10;;
67156;SDS011;54086;50.126;8.710;2023-02-01T08:37:08;9.10;;;2.30;;
67156;SDS011;54086;50.126;8.710;2023-02-01T08:39:34;18.15;;;7.00;;
67156;SDS011;54086;50.126;8.710;2023-02-01T08:42:01;11.57;;;2.67;;
67156;SDS011;54086;50.126;8.710;2023-02-01T08:44:45;12.32;;;2.67;;
67156;SDS011;54086;50.126;8.710;2023-02-01T08:47:12;11.85;;;2.85;;
67156;SDS011;54086;50.126;8.710;2023-02-01T08:49:37;11.17;;;3.10;;
67156;SDS011;54086;50.126;8.710;2023-02-01T08:52:03;10.83;;;2.83;;
67156;SDS011;54086;50.126;8.710;2023-02-01T08:54:28;14.20;;;3.10;;
67156;SDS011;54086;50.126;8.710;2023-02-01T08:56:53;9.30;;;2.87;;
67156;SDS011;54086;50.126;8.710;2023-02-01T08:59:19;12.65;;;2.90;;
67156;SDS011;54086;50.126;8.710;2023-02-01T09:01:45;9.73;;;2.80;;
67156;SDS011;54086;50.126;8.710;2023-02-01T09:04:10;12.53;;;3.13;;
67156;SDS011;54086;50.126;8.710;2023-02-01T09:06:35;9.67;;;2.60;;
67156;SDS011;54086;50.126;8.710;2023-02-01T09:09:01;16.63;;;3.43;;
67156;SDS011;54086;50.126;8.710;2023-02-01T09:11:26;14.57;;;2.95;;
67156;SDS011;54086;50.126;8.710;2023-02-01T09:13:51;11.57;;;2.57;;
67156;SDS011;54086;50.126;8.710;2023-02-01T09:16:17;10.83;;;2.90;;
67156;SDS011;54086;50.126;8.710;2023-02-01T09:18:42;14.43;;;3.30;;
67156;SDS011;54086;50.126;8.710;2023-02-01T09:21:08;8.07;;;2.70;;
67156;SDS011;54086;50.126;8.710;2023-02-01T09:23:33;9.97;;;2.47;;
67156;SDS011;54086;50.126;8.710;2023-02-01T09:26:00;11.45;;;2.50;;
67156;SDS011;54086;50.126;8.710;2023-02-01T09:28:26;14.43;;;3.17;;
67156;SDS011;54086;50.126;8.710;2023-02-01T09:30:55;17.23;;;2.90;;
67156;SDS011;54086;50.126;8.710;2023-02-01T09:33:23;10.67;;;2.90;;
67156;SDS011;54086;50.126;8.710;2023-02-01T09:35:54;11.48;;;2.80;;
67156;SDS011;54086;50.126;8.710;2023-02-01T09:38:29;17.08;;;3.20;;
67156;SDS011;54086;50.126;8.710;2023-02-01T09:40:56;11.93;;;2.83;;
67156;SDS011;54086;50.126;8.710;2023-02-01T09:48:27;15.07;;;2.95;;
67156;SDS011;54086;50.126;8.710;2023-02-01T09:50:57;10.95;;;2.65;;
67156;SDS011;54086;50.126;8.710;2023-02-01T09:53:29;19.20;;;3.65;;
67156;SDS011;54086;50.126;8.710;2023-02-01T09:56:10;9.48;;;2.92;;
67156;SDS011;54086;50.126;8.710;2023-02-01T09:58:44;11.63;;;3.47;;
67156;SDS011;54086;50.126;8.710;2023-02-01T10:01:19;16.02;;;2.90;;
67156;SDS011;54086;50.126;8.710;2023-02-01T10:03:49;13.20;;;2.67;;
67156;SDS011;54086;50.126;8.710;2023-02-01T10:09:02;11.52;;;3.55;;
67156;SDS011;54086;50.126;8.710;2023-02-01T10:27:51;11.88;;;2.60;;
67156;SDS011;54086;50.126;8.710;2023-02-01T10:30:23;9.95;;;2.70;;
67156;SDS011;54086;50.126;8.710;2023-02-01T10:32:54;11.43;;;2.73;;
67156;SDS011;54086;50.126;8.710;2023-02-01T10:35:37;10.68;;;2.45;;
67156;SDS011;54086;50.126;8.710;2023-02-01T10:38:04;8.98;;;2.22;;
67156;SDS011;54086;50.126;8.710;2023-02-01T10:40:38;11.02;;;2.50;;
67156;SDS011;54086;50.126;8.710;2023-02-01T10:43:04;12.43;;;3.20;;
67156;SDS011;54086;50.126;8.710;2023-02-01T10:45:30;11.25;;;2.40;;
67156;SDS011;54086;50.126;8.710;2023-02-01T10:47:58;11.50;;;2.63;;
67156;SDS011;54086;50.126;8.710;2023-02-01T10:50:35;14.13;;;2.60;;
67156;SDS011;54086;50.126;8.710;2023-02-01T10:55:33;11.70;;;2.53;;
67156;SDS011;54086;50.126;8.710;2023-02-01T10:58:02;9.95;;;2.63;;
67156;SDS011;54086;50.126;8.710;2023-02-01T11:00:41;12.33;;;2.50;;
67156;SDS011;54086;50.126;8.710;2023-02-01T11:05:57;12.65;;;2.53;;
67156;SDS011;54086;50.126;8.710;2023-02-01T11:08:23;15.73;;;3.40;;
67156;SDS011;54086;50.126;8.710;2023-02-01T11:10:49;9.60;;;2.63;;
67156;SDS011;54086;50.126;8.710;2023-02-01T11:13:24;9.95;;;2.30;;
67156;SDS011;54086;50.126;8.710;2023-02-01T11:15:55;13.10;;;2.87;;
67156;SDS011;54086;50.126;8.710;2023-02-01T11:18:25;14.30;;;2.90;;
67156;SDS011;54086;50.126;8.710;2023-02-01T11:20:53;13.25;;;3.22;;
67156;SDS011;54086;50.126;8.710;2023-02-01T11:23:21;11.52;;;2.40;;
67156;SDS011;54086;50.126;8.710;2023-02-01T11:25:53;10.15;;;2.30;;
67156;SDS011;54086;50.126;8.710;2023-02-01T11:28:21;14.17;;;4.47;;
67156;SDS011;54086;50.126;8.710;2023-02-01T11:30:53;11.98;;;3.63;;
67156;SDS011;54086;50.126;8.710;2023-02-01T11:33:23;11.57;;;2.58;;
67156;SDS011;54086;50.126;8.710;2023-02-01T11:35:54;9.57;;;2.30;;
67156;SDS011;54086;50.126;8.710;2023-02-01T11:38:26;10.40;;;2.33;;
67156;SDS011;54086;50.126;8.710;2023-02-01T11:41:10;10.93;;;2.67;;
67156;SDS011;54086;50.126;8.710;2023-02-01T11:43:58;12.23;;;2.58;;
67156;SDS011;54086;50.126;8.710;2023-02-01T11:46:29;14.70;;;3.13;;
67156;SDS011;54086;50.126;8.710;2023-02-01T11:49:19;7.82;;;2.63;;
67156;SDS011;54086;50.126;8.710;2023-02-01T12:09:09;12.90;;;2.60;;
67156;SDS011;54086;50.126;8.710;2023-02-01T12:14:59;9.50;;;2.45;;
67156;SDS011;54086;50.126;8.710;2023-02-01T12:25:34;9.48;;;2.00;;
67156;SDS011;54086;50.126;8.710;2023-02-01T12:28:16;16.33;;;2.30;;
67156;SDS011;54086;50.126;8.710;2023-02-01T12:34:13;8.25;;;2.40;;
67156;SDS011;54086;50.126;8.710;2023-02-01T12:37:01;14.25;;;2.40;;
67156;SDS011;54086;50.126;8.710;2023-02-01T12:43:04;10.43;;;2.80;;
67156;SDS011;54086;50.126;8.710;2023-02-01T12:45:36;15.30;;;2.97;;
67156;SDS011;54086;50.126;8.710;2023-02-01T12:50:56;9.88;;;2.33;;
67156;SDS011;54086;50.126;8.710;2023-02-01T12:56:15;14.10;;;2.97;;
67156;SDS011;54086;50.126;8.710;2023-02-01T12:58:50;13.20;;;2.22;;
67156;SDS011;54086;50.126;8.710;2023-02-01T13:01:27;11.18;;;2.25;;
67156;SDS011;54086;50.126;8.710;2023-02-01T13:06:29;13.03;;;2.60;;
67156;SDS011;54086;50.126;8.710;2023-02-01T13:09:09;11.02;;;2.50;;
67156;SDS011;54086;50.126;8.710;2023-02-01T13:12:15;15.20;;;3.17;;
67156;SDS011;54086;50.126;8.710;2023-02-01T13:14:49;14.23;;;3.93;;
67156;SDS011;54086;50.126;8.710;2023-02-01T13:17:23;15.45;;;3.25;;
67156;SDS011;54086;50.126;8.710;2023-02-01T13:19:54;11.13;;;2.10;;
67156;SDS011;54086;50.126;8.710;2023-02-01T13:27:29;11.20;;;2.23;;
67156;SDS011;54086;50.126;8.710;2023-02-01T13:35:40;13.25;;;3.40;;
67156;SDS011;54086;50.126;8.710;2023-02-01T13:40:50;15.13;;;2.63;;
67156;SDS011;54086;50.126;8.710;2023-02-01T13:43:34;10.82;;;2.55;;
67156;SDS011;54086;50.126;8.710;2023-02-01T13:46:06;15.20;;;3.83;;
67156;SDS011;54086;50.126;8.710;2023-02-01T13:48:39;14.13;;;2.60;;
67156;SDS011;54086;50.126;8.710;2023-02-01T13:51:11;11.63;;;2.70;;
67156;SDS011;54086;50.126;8.710;2023-02-01T13:53:38;13.37;;;2.87;;
67156;SDS011;54086;50.126;8.710;2023-02-01T13:56:20;13.90;;;3.33;;
67156;SDS011;54086;50.126;8.710;2023-02-01T13:58:49;10.32;;;2.47;;
67156;SDS011;54086;50.126;8.710;2023-02-01T14:19:25;13.52;;;2.63;;
67156;SDS011;54086;50.126;8.710;2023-02-01T14:21:56;10.90;;;2.47;;
67156;SDS011;54086;50.126;8.710;2023-02-01T14:24:26;9.53;;;2.20;;
67156;SDS011;54086;50.126;8.710;2023-02-01T14:26:54;11.02;;;2.72;;
67156;SDS011;54086;50.126;8.710;2023-02-01T14:29:25;9.00;;;2.00;;
67156;SDS011;54086;50.126;8.710;2023-02-01T14:32:03;13.13;;;2.88;;
67156;SDS011;54086;50.126;8.710;2023-02-01T14:37:25;14.67;;;2.80;;
67156;SDS011;54086;50.126;8.710;2023-02-01T14:42:43;11.45;;;2.20;;
67156;SDS011;54086;50.126;8.710;2023-02-01T14:50:32;10.60;;;2.20;;
67156;SDS011;54086;50.126;8.710;2023-02-01T15:01:32;10.23;;;1.90;;
67156;SDS011;54086;50.126;8.710;2023-02-01T15:04:06;11.77;;;2.80;;
67156;SDS011;54086;50.126;8.710;2023-02-01T15:06:45;12.90;;;2.40;;
67156;SDS011;54086;50.126;8.710;2023-02-01T15:14:43;11.70;;;2.42;;
67156;SDS011;54086;50.126;8.710;2023-02-01T15:17:22;11.03;;;2.13;;
67156;SDS011;54086;50.126;8.710;2023-02-01T15:19:56;6.88;;;1.58;;
67156;SDS011;54086;50.126;8.710;2023-02-01T15:22:23;9.88;;;2.58;;
67156;SDS011;54086;50.126;8.710;2023-02-01T15:24:53;9.98;;;2.15;;
67156;SDS011;54086;50.126;8.710;2023-02-01T15:27:20;8.32;;;1.83;;
67156;SDS011;54086;50.126;8.710;2023-02-01T15:29:45;6.60;;;1.50;;
67156;SDS011;54086;50.126;8.710;2023-02-01T15:34:56;10.73;;;2.28;;
67156;SDS011;54086;50.126;8.710;2023-02-01T15:37:21;9.63;;;2.37;;
67156;SDS011;54086;50.126;8.710;2023-02-01T15:42:52;12.97;;;2.00;;
67156;SDS011;54086;50.126;8.710;2023-02-01T15:45:21;10.52;;;2.30;;
67156;SDS011;54086;50.126;8.710;2023-02-01T15:47:51;12.18;;;2.00;;
67156;SDS011;54086;50.126;8.710;2023-02-01T15:50:19;10.73;;;2.05;;
67156;SDS011;54086;50.126;8.710;2023-02-01T15:52:46;8.57;;;2.25;;
67156;SDS011;54086;50.126;8.710;2023-02-01T15:57:47;10.00;;;2.33;;
67156;SDS011;54086;50.126;8.710;2023-02-01T16:00:26;10.52;;;2.80;;
67156;SDS011;54086;50.126;8.710;2023-02-01T16:02:59;9.68;;;2.00;;
67156;SDS011;54086;50.126;8.710;2023-02-01T16:07:55;10.93;;;1.80;;
67156;SDS011;54086;50.126;8.710;2023-02-01T16:10:28;9.88;;;2.15;;
67156;SDS011;54086;50.126;8.710;2023-02-01T16:12:54;10.83;;;2.70;;
67156;SDS011;54086;50.126;8.710;2023-02-01T16:15:23;11.30;;;2.95;;
67156;SDS011;54086;50.126;8.710;2023-02-01T16:17:49;12.87;;;3.03;;
67156;SDS011;54086;50.126;8.710;2023-02-01T16:20:14;13.17;;;2.93;;
67156;SDS011;54086;50.126;8.710;2023-02-01T16:22:40;11.50;;;2.37;;
67156;SDS011;54086;50.126;8.710;2023-02-01T16:25:05;9.30;;;2.20;;
67156;SDS011;54086;50.126;8.710;2023-02-01T16:27:31;10.85;;;2.50;;
67156;SDS011;54086;50.126;8.710;2023-02-01T16:29:57;15.67;;;2.60;;
67156;SDS011;54086;50.126;8.710;2023-02-01T16:32:22;8.97;;;1.97;;
67156;SDS011;54086;50.126;8.710;2023-02-01T16:34:47;10.73;;;2.03;;
67156;SDS011;54086;50.126;8.710;2023-02-01T16:37:15;9.70;;;2.23;;
67156;SDS011;54086;50.126;8.710;2023-02-01T16:39:44;6.43;;;1.77;;
67156;SDS011;54086;50.126;8.710;2023-02-01T16:42:13;8.43;;;2.07;;
67156;SDS011;54086;50.126;8.710;2023-02-01T16:44:40;9.25;;;1.92;;
67156;SDS011;54086;50.126;8.710;2023-02-01T16:47:14;10.38;;;2.40;;
67156;SDS011;54086;50.126;8.710;2023-02-01T16:49:42;10.77;;;2.78;;
67156;SDS011;54086;50.126;8.710;2023-02-01T16:52:12;9.57;;;2.13;;
67156;SDS011;54086;50.126;8.710;2023-02-01T16:54:40;8.97;;;2.00;;
67156;SDS011;54086;50.126;8.710;2023-02-01T16:57:10;12.73;;;2.88;;
67156;SDS011;54086;50.126;8.710;2023-02-01T16:59:36;14.40;;;2.33;;
67156;SDS011;54086;50.126;8.710;2023-02-01T17:02:01;11.23;;;2.15;;
67156;SDS011;54086;50.126;8.710;2023-02-01T17:04:27;8.70;;;2.20;;
67156;SDS011;54086;50.126;8.710;2023-02-01T17:06:52;15.20;;;2.70;;
67156;SDS011;54086;50.126;8.710;2023-02-01T17:09:17;10.67;;;2.10;;
67156;SDS011;54086;50.126;8.710;2023-02-01T17:11:43;9.47;;;1.80;;
67156;SDS011;54086;50.126;8.710;2023-02-01T17:14:16;8.20;;;2.40;;
67156;SDS011;54086;50.126;8.710;2023-02-01T17:16:43;11.60;;;2.22;;
67156;SDS011;54086;50.126;8.710;2023-02-01T17:19:15;11.03;;;1.93;;
67156;SDS011;54086;50.126;8.710;2023-02-01T17:21:44;11.68;;;2.38;;
67156;SDS011;54086;50.126;8.710;2023-02-01T17:24:17;10.45;;;2.35;;
67156;SDS011;54086;50.126;8.710;2023-02-01T17:26:44;10.80;;;2.30;;
67156;SDS011;54086;50.126;8.710;2023-02-01T17:29:10;9.93;;;2.60;;
67156;SDS011;54086;50.126;8.710;2023-02-01T17:31:38;11.57;;;2.43;;
67156;SDS011;54086;50.126;8.710;2023-02-01T17:34:05;6.47;;;1.73;;
67156;SDS011;54086;50.126;8.710;2023-02-01T17:36:31;12.55;;;2.40;;
67156;SDS011;54086;50.126;8.710;2023-02-01T17:38:57;8.40;;;2.70;;
67156;SDS011;54086;50.126;8.710;2023-02-01T17:41:23;8.88;;;2.33;;
67156;SDS011;54086;50.126;8.710;2023-02-01T17:43:49;11.53;;;2.13;;
67156;SDS011;54086;50.126;8.710;2023-02-01T17:46:17;13.38;;;2.45;;
67156;SDS011;54086;50.126;8.710;2023-02-01T17:48:42;11.65;;;2.45;;